Terminal Aerodrome Forecast
Issued by NWS

Home | Current Version | Previous Version | Text Only | Print | Product List | Glossary On
Versions: 1 2 3 4 5 6 7 8 9 10 11 12 13 14 15 16 17 18 19 20 21 22 23 24 25 26 27 28 29 30 31 32 33 34 35 36 37 38
000
FTUS46 KOTX 271443 AAB
TAFCOE
TAF AMD
KCOE 271443Z 2715/2812 15005KT 6SM -RA BR BKN010 OVC017
     FM271800 20008KT 4SM -SHRA SCT014 BKN025
     FM272200 23010KT P6SM VCSH BKN027 BKN050
     FM280100 21006KT P6SM BKN100
     FM280400 21005KT P6SM BKN250=

USA.gov is the U.S. government's official web portal to all federal, state and local government web resources and services.